Flight Track Log - Related Links

Times and Time Zones

All times are in EDT time to prevent confusion due to time zone crossing. See the JBU33 flight status page for this flight to view local times or setup timezone preferences in your user account.

Time Position Orientation Groundspeed Altitude Reporting Facility
EDT Latitude Longitude Course Direction KTS MPH feet Rate Location/Type
Thu 14:41:49 44.4097 -73.3583 191° South 302 348 9,900  Level Boston Center
Thu 14:42:49 44.3283 -73.3803 191° South 297 342 12,900 2,800 Climbing Boston Center
Thu 14:43:49 44.2406 -73.4050 191° South 308 354 15,500 2,800 Climbing Boston Center
Thu 14:44:49 44.1467 -73.4325 192° South 330 380 18,500 3,050 Climbing Boston Center
Thu 14:45:49 44.0525 -73.4569 191° South 342 394 21,600 2,350 Climbing Boston Center
Thu 14:46:49 43.9525 -73.4725 186° South 360 414 23,200 1,700 Climbing Boston Center
Thu 14:47:49 43.8419 -73.4878 186° South 390 449 25,000 1,850 Climbing Boston Center
Thu 14:48:49 43.7292 -73.5089 188° South 402 463 26,900 1,500 Climbing Boston Center
Thu 14:49:49 43.6250 -73.5214 185° South 415 478 28,000 550 Climbing Boston Center
Thu 14:50:49 43.5081 -73.5394 186° South 420 483 28,000  Level Boston Center
Thu 14:51:49 43.3869 -73.5572 186° South 427 491 28,000  Level Boston Center
Thu 14:52:49 43.2700 -73.5778 187° South 427 491 28,000  Level Boston Center
Thu 14:53:49 43.1511 -73.5897 184° South 427 491 28,000  Level Boston Center
Thu 14:54:49 43.0319 -73.6161 189° South 427 491 28,000  Level Boston Center
Thu 14:55:49 42.9131 -73.6336 186° South 427 491 28,000  Level Boston Center
Thu 14:56:48 42.8233 -73.6517 188° South 427 491 28,000  Level Boston Center
Thu 14:57:49 42.6875 -73.6717 186° South 422 486 28,000  Level Boston Center
Thu 14:58:49 42.5811 -73.6892 187° South 401 461 28,000  Level Boston Center
Thu 14:59:49 42.4767 -73.7039 186° South 390 449 28,000  Level Boston Center
Thu 15:00:49 42.3744 -73.7217 187° South 379 436 28,000  Level Boston Center
Thu 15:01:49 42.2700 -73.7364 186° South 379 436 28,000  Level Boston Center
Thu 15:02:49 42.1656 -73.7539 187° South 379 436 28,000  Level Boston Center
Thu 15:03:49 42.0633 -73.7683 186° South 379 436 28,000  Level Boston Center
Thu 15:04:49 41.9569 -73.7831 186° South 385 443 28,000  Level Boston Center
Thu 15:05:49 41.8525 -73.8003 187° South 385 443 28,000  Level Boston Center
Thu 15:06:49 41.7419 -73.8117 184° South 385 443 28,000 -150 Level Boston Center
Thu 15:07:49 41.6394 -73.8289 187° South 385 443 27,700 -500 Descending Boston Center
Thu 15:08:49 41.5839 -73.9333 235° Southwest 330 380 27,000 -350 Descending Boston Center
Thu 15:09:49 41.5697 -74.0606 262° West 322 371 27,000  Level Boston Center
Thu 15:10:49 41.5992 -74.1917 287° West 327 376 27,000  Level Boston Center
Thu 15:12:00 41.6897 -74.2639 329° Northwest 315 362 27,000  Level Boston Center
Thu 15:14:00 41.7753 -74.0031 66° East 284 327 27,000 -429 Level New York Center
Thu 15:15:02 41.6800 -73.9069 143° Southeast 309 356 25,700 -1,750 Descending New York Center
Thu 15:16:00 41.5611 -73.9178 184° South 314 361 23,500 -2,218 Descending New York Center
Thu 15:17:01 41.4697 -73.9911 211° Southwest 321 369 21,300 -1,736 Descending New York Center
Thu 15:18:01 41.3822 -74.0697 214° Southwest 347 399 20,000 -694 Descending New York Center
Thu 15:19:02 41.2967 -74.1456 214° Southwest 369 425 19,900  Descending New York Center
Thu 15:20:02 41.2369 -74.1950 212° Southwest 358 412 20,000 51 Climbing New York Center
Thu 15:21:00 41.1497 -74.2594 209° Southwest 344 396 20,000  Level New York Center
Thu 15:22:01 41.0731 -74.3133 208° Southwest 326 375 20,000 -148 Level New York Center
Thu 15:23:02 40.9847 -74.2756 162° South 299 344 19,700 -638 Descending New York Center
Thu 15:23:35 40.9500 -74.2000 121° Southeast 343 395 19,000 -606 Descending New York TRACON
Thu 15:24:41 40.8667 -74.1167 143° Southeast 328 377 18,700 -950 Descending New York TRACON
Thu 15:25:35 40.7833 -74.1000 171° South 320 368 17,100 -1,409 Descending New York TRACON
Thu 15:26:36 40.7000 -74.0667 163° South 313 360 16,000 -1,476 Descending New York TRACON
Thu 15:27:41 40.6167 -74.0167 156° South 313 360 14,000 -1,392 Descending New York TRACON
Thu 15:28:41 40.5333 -73.9833 163° South 308 354 13,100 -500 Descending New York TRACON
Thu 15:29:41 40.4667 -73.9167 143° Southeast 312 359 13,000 -950 Descending New York TRACON
Thu 15:30:41 40.4000 -73.8500 143° Southeast 300 345 11,200 -1,513 Descending New York TRACON
Thu 15:31:36 40.3500 -73.7833 135° Southeast 286 329 10,100 -1,096 Descending New York TRACON
Thu 15:32:36 40.3500 -73.7000 90° East 268 308 9,100 -1,008 Descending New York TRACON
Thu 15:33:41 40.3833 -73.6000 66° East 269 310 8,000 -750 Descending New York TRACON
Thu 15:34:36 40.4333 -73.5667 27° Northeast 259 298 7,600 -583 Descending New York TRACON
Thu 15:36:36 40.5667 -73.4833 25° Northeast 251 289 6,300 -876 Descending New York TRACON
Thu 15:37:41 40.6333 -73.4667 11° North 239 275 4,900 -1,100 Descending New York TRACON
Thu 15:38:36 40.7000 -73.4833 349° North 238 274 4,100 -421 Descending New York TRACON
Thu 15:39:35 40.7500 -73.5000 346° North 237 273 4,100 -50 Level New York TRACON
Thu 15:40:35 40.8167 -73.5167 349° North 219 252 4,000 -550 Descending New York TRACON
Thu 15:41:35 40.8667 -73.5333 346° North 211 243 3,000 -496 Descending New York TRACON
Thu 15:42:36 40.8667 -73.6000 270° West 180 207 3,000  Level New York TRACON

Login

Don't have an account? Register now (free) for customized features, flight alerts, and more!